Time;durP1;ratioP1;P1;durP2;ratioP2;P2;SDS_P1;SDS_P2;PMS_P1;PMS_P2;Temp;Humidity;BMP_temperature;BMP_pressure;BME280_temperature;BME280_humidity;BME280_pressure;Samples;Min_cycle;Max_cycle;Signal;HPM_P1;HPM_P2
2021/09/25 00:02:23;;;;;;;;;;;15.30;1.00;;;;;;5050195;28;20301;-82
2021/09/25 00:04:48;;;;;;;;;;;15.20;1.00;;;;;;5052430;28;19976;-81
2021/09/25 00:07:14;;;;;;;;;;;15.20;1.00;;;;;;5052166;28;19916;-82
2021/09/25 00:09:43;;;;;;;;;;;15.20;1.00;;;;;;5052505;28;20016;-82
2021/09/25 00:12:11;;;;;;;;;;;15.20;1.00;;;;;;5050027;28;19984;-81
2021/09/25 00:14:38;;;;;;;;;;;15.20;1.00;;;;;;5051665;28;20345;-81
2021/09/25 00:17:04;;;;;;;;;;;15.10;1.00;;;;;;5052291;28;19932;-81
2021/09/25 00:19:30;;;;;;;;;;;15.10;1.00;;;;;;5053356;28;19917;-82
2021/09/25 00:21:56;;;;;;;;;;;15.10;1.00;;;;;;5051979;28;19915;-81
2021/09/25 00:24:22;;;;;;;;;;;15.10;1.00;;;;;;5053822;28;19913;-82
2021/09/25 00:26:48;;;;;;;;;;;15.10;1.00;;;;;;5053155;28;19920;-82
2021/09/25 00:29:13;;;;;;;;;;;15.00;1.00;;;;;;5052592;28;20365;-81
2021/09/25 00:31:39;;;;;;;;;;;15.00;1.00;;;;;;5050123;28;19917;-81
2021/09/25 00:34:04;;;;;;;;;;;15.00;1.00;;;;;;5053653;28;19939;-82
2021/09/25 00:36:30;;;;;;;;;;;15.00;1.00;;;;;;5052515;28;20003;-82
2021/09/25 00:38:55;;;;;;;;;;;15.00;1.00;;;;;;5052361;28;20357;-81
2021/09/25 00:41:21;;;;;;;;;;;15.00;1.00;;;;;;5052824;28;19913;-82
2021/09/25 00:43:46;;;;;;;;;;;14.90;1.00;;;;;;5052441;28;19923;-81
2021/09/25 00:46:13;;;;;;;;;;;14.90;1.00;;;;;;5052015;28;20422;-81
2021/09/25 00:48:38;;;;;;;;;;;14.90;1.00;;;;;;5054605;28;19909;-81
2021/09/25 00:51:04;;;;;;;;;;;14.90;1.00;;;;;;5057104;28;19912;-82
2021/09/25 00:53:29;;;;;;;;;;;14.90;1.00;;;;;;5055391;28;19984;-82
2021/09/25 00:55:55;;;;;;;;;;;14.90;1.00;;;;;;5058264;28;19909;-83
2021/09/25 00:58:21;;;;;;;;;;;14.80;1.00;;;;;;5053961;28;19913;-82
2021/09/25 01:00:46;;;;;;;;;;;14.80;1.00;;;;;;5052802;28;19913;-83
2021/09/25 01:03:12;;;;;;;;;;;14.80;1.00;;;;;;5057661;28;19916;-83
2021/09/25 01:05:41;;;;;;;;;;;14.80;1.00;;;;;;5059396;28;19913;-82
2021/09/25 01:08:06;;;;;;;;;;;14.80;1.00;;;;;;5057452;28;19913;-83
2021/09/25 01:10:32;;;;;;;;;;;14.70;1.00;;;;;;5059418;28;19916;-83
2021/09/25 01:12:57;;;;;;;;;;;14.70;1.00;;;;;;5058121;28;19917;-83
2021/09/25 01:15:23;;;;;;;;;;;14.70;1.00;;;;;;5060587;28;19912;-82
2021/09/25 01:17:48;;;;;;;;;;;14.70;1.00;;;;;;5056423;28;19974;-83
2021/09/25 01:20:14;;;;;;;;;;;14.70;1.00;;;;;;5047728;28;19928;-82
2021/09/25 01:22:40;;;;;;;;;;;14.70;1.00;;;;;;5056979;28;20427;-83
2021/09/25 01:25:06;;;;;;;;;;;14.70;1.00;;;;;;5057040;28;19916;-83
2021/09/25 01:27:31;;;;;;;;;;;14.70;1.00;;;;;;5058441;28;19917;-83
2021/09/25 01:29:57;;;;;;;;;;;14.60;1.00;;;;;;5056574;28;19920;-83
2021/09/25 01:32:23;;;;;;;;;;;14.60;1.00;;;;;;5057702;28;19948;-82
2021/09/25 01:34:48;;;;;;;;;;;14.60;1.00;;;;;;5055508;28;20104;-83
2021/09/25 01:37:14;;;;;;;;;;;14.60;1.00;;;;;;5055276;28;20321;-83
2021/09/25 01:39:39;;;;;;;;;;;14.60;1.00;;;;;;5054606;28;19952;-82
2021/09/25 01:42:05;;;;;;;;;;;14.60;1.00;;;;;;5055389;28;19913;-82
2021/09/25 01:44:31;;;;;;;;;;;14.60;1.00;;;;;;5056705;28;20011;-82
2021/09/25 01:46:57;;;;;;;;;;;14.60;1.00;;;;;;5057664;28;19909;-82
2021/09/25 01:49:23;;;;;;;;;;;14.60;1.00;;;;;;5039781;28;19921;-81
2021/09/25 01:51:49;;;;;;;;;;;14.50;1.00;;;;;;5056242;28;19921;-80
2021/09/25 01:54:15;;;;;;;;;;;14.50;1.00;;;;;;5057149;28;19936;-83
2021/09/25 01:56:42;;;;;;;;;;;14.50;1.00;;;;;;5056521;28;19917;-83
2021/09/25 01:59:07;;;;;;;;;;;14.50;1.00;;;;;;5057780;28;20011;-83
2021/09/25 02:01:33;;;;;;;;;;;14.50;1.00;;;;;;5055961;28;19959;-83
2021/09/25 02:03:58;;;;;;;;;;;14.40;1.00;;;;;;5058412;28;19923;-83
2021/09/25 02:06:25;;;;;;;;;;;14.40;1.00;;;;;;5058406;28;19916;-83
2021/09/25 02:08:51;;;;;;;;;;;14.40;1.00;;;;;;5057580;28;19916;-83
2021/09/25 02:11:17;;;;;;;;;;;14.40;1.00;;;;;;5055313;28;19912;-83
2021/09/25 02:13:42;;;;;;;;;;;14.40;1.00;;;;;;5054566;28;19916;-83
2021/09/25 02:16:08;;;;;;;;;;;14.40;1.00;;;;;;5054097;28;19913;-82
2021/09/25 02:18:34;;;;;;;;;;;14.50;1.00;;;;;;5054940;28;19913;-81
2021/09/25 02:20:59;;;;;;;;;;;14.40;1.00;;;;;;5053242;28;19913;-82
2021/09/25 02:23:25;;;;;;;;;;;14.40;1.00;;;;;;5051605;28;19963;-81
2021/09/25 02:25:51;;;;;;;;;;;14.40;1.00;;;;;;5056659;28;19909;-82
2021/09/25 02:28:16;;;;;;;;;;;14.40;1.00;;;;;;5053691;28;19987;-82
2021/09/25 02:30:42;;;;;;;;;;;14.30;1.00;;;;;;5053443;28;19991;-82
2021/09/25 02:33:07;;;;;;;;;;;14.30;1.00;;;;;;5052987;28;19920;-82
2021/09/25 02:35:33;;;;;;;;;;;14.30;1.00;;;;;;5055576;28;19912;-81
2021/09/25 02:37:58;;;;;;;;;;;14.40;1.00;;;;;;5054555;28;20385;-82
2021/09/25 02:40:24;;;;;;;;;;;14.40;1.00;;;;;;5055767;28;19970;-82
2021/09/25 02:42:50;;;;;;;;;;;14.30;1.00;;;;;;5053622;28;20364;-82
2021/09/25 02:45:16;;;;;;;;;;;14.30;1.00;;;;;;5054973;28;19919;-82
2021/09/25 02:47:41;;;;;;;;;;;14.30;1.00;;;;;;5052381;28;19913;-82
2021/09/25 02:50:08;;;;;;;;;;;14.30;1.00;;;;;;5052778;28;19913;-82
2021/09/25 02:52:34;;;;;;;;;;;14.30;1.00;;;;;;5054138;28;19916;-81
2021/09/25 02:54:59;;;;;;;;;;;14.20;1.00;;;;;;5054172;28;19912;-82
2021/09/25 02:57:25;;;;;;;;;;;14.20;1.00;;;;;;5054010;28;19935;-81
2021/09/25 02:59:50;;;;;;;;;;;14.20;1.00;;;;;;5053056;28;19984;-82
2021/09/25 03:02:16;;;;;;;;;;;14.20;1.00;;;;;;5052718;28;19913;-82
2021/09/25 03:04:41;;;;;;;;;;;14.20;1.00;;;;;;5054360;28;19939;-82
2021/09/25 03:07:08;;;;;;;;;;;14.20;1.00;;;;;;5052292;28;20389;-82
2021/09/25 03:09:34;;;;;;;;;;;14.10;1.00;;;;;;5053555;28;19920;-82
2021/09/25 03:11:59;;;;;;;;;;;14.10;1.00;;;;;;5052779;28;19919;-81
2021/09/25 03:14:25;;;;;;;;;;;14.10;1.00;;;;;;5053268;28;20304;-81
2021/09/25 03:16:50;;;;;;;;;;;14.10;1.00;;;;;;5050820;28;19913;-83
2021/09/25 03:19:16;;;;;;;;;;;14.10;1.00;;;;;;5052338;28;20015;-82
2021/09/25 03:21:41;;;;;;;;;;;14.10;1.00;;;;;;5055254;28;19919;-82
2021/09/25 03:24:07;;;;;;;;;;;14.10;1.00;;;;;;5052994;28;19936;-83
2021/09/25 03:26:32;;;;;;;;;;;14.10;1.00;;;;;;5054258;28;19919;-81
2021/09/25 03:28:58;;;;;;;;;;;14.20;1.00;;;;;;5053495;28;19960;-82
2021/09/25 03:31:24;;;;;;;;;;;14.20;1.00;;;;;;5049029;28;20449;-81
2021/09/25 03:33:49;;;;;;;;;;;14.30;1.00;;;;;;5053753;28;19912;-82
2021/09/25 03:36:14;;;;;;;;;;;14.30;1.00;;;;;;5049407;28;19913;-81
2021/09/25 03:38:40;;;;;;;;;;;14.30;1.00;;;;;;5051968;28;19921;-80
2021/09/25 03:41:05;;;;;;;;;;;14.30;1.00;;;;;;5052497;28;19974;-84
2021/09/25 03:43:31;;;;;;;;;;;14.30;1.00;;;;;;5052525;28;19971;-81
2021/09/25 03:45:56;;;;;;;;;;;14.30;1.00;;;;;;5051811;28;19913;-82
2021/09/25 03:48:22;;;;;;;;;;;14.30;1.00;;;;;;5053623;28;20396;-81
2021/09/25 03:50:47;;;;;;;;;;;14.30;1.00;;;;;;5051550;28;19920;-82
2021/09/25 03:53:13;;;;;;;;;;;14.30;1.00;;;;;;5049144;28;19921;-81
2021/09/25 03:55:38;;;;;;;;;;;14.30;1.00;;;;;;5053897;28;20411;-81
2021/09/25 03:58:04;;;;;;;;;;;14.30;1.00;;;;;;5051668;28;20391;-81
2021/09/25 04:00:29;;;;;;;;;;;14.30;1.00;;;;;;5053406;28;19917;-82
2021/09/25 04:02:55;;;;;;;;;;;14.30;1.00;;;;;;5050588;28;19920;-82
2021/09/25 04:05:21;;;;;;;;;;;14.30;1.00;;;;;;5052813;28;19936;-82
2021/09/25 04:07:47;;;;;;;;;;;14.30;1.00;;;;;;5053585;28;19966;-82
2021/09/25 04:10:13;;;;;;;;;;;14.30;1.00;;;;;;5051712;28;20351;-82
2021/09/25 04:12:39;;;;;;;;;;;14.30;1.00;;;;;;5051431;28;19913;-82
2021/09/25 04:15:06;;;;;;;;;;;14.30;1.00;;;;;;5049728;28;20462;-82
2021/09/25 04:17:31;;;;;;;;;;;14.30;1.00;;;;;;5052004;28;19935;-82
2021/09/25 04:19:57;;;;;;;;;;;14.30;1.00;;;;;;5052332;28;19917;-82
2021/09/25 04:22:22;;;;;;;;;;;14.30;1.00;;;;;;5048759;28;19913;-82
2021/09/25 04:24:48;;;;;;;;;;;14.30;1.00;;;;;;5040053;28;19909;-82
2021/09/25 04:27:13;;;;;;;;;;;14.30;1.00;;;;;;5051731;28;19936;-82
2021/09/25 04:29:39;;;;;;;;;;;14.40;1.00;;;;;;5051111;28;19940;-81
2021/09/25 04:32:04;;;;;;;;;;;14.40;1.00;;;;;;5051247;28;19909;-81
2021/09/25 04:34:31;;;;;;;;;;;14.40;1.00;;;;;;5053019;28;20404;-82
2021/09/25 04:36:57;;;;;;;;;;;14.40;1.00;;;;;;5056026;28;20280;-83
2021/09/25 04:39:24;;;;;;;;;;;14.40;1.00;;;;;;5053816;28;19919;-80
2021/09/25 04:41:50;;;;;;;;;;;14.40;1.00;;;;;;5056863;28;20003;-82
2021/09/25 04:44:16;;;;;;;;;;;14.40;1.00;;;;;;5057118;28;19916;-83
2021/09/25 04:46:42;;;;;;;;;;;14.40;1.00;;;;;;5057405;28;19905;-81
2021/09/25 04:49:08;;;;;;;;;;;14.40;1.00;;;;;;5054082;28;19954;-82
2021/09/25 04:51:34;;;;;;;;;;;14.40;1.00;;;;;;5053641;28;19920;-81
2021/09/25 04:53:59;;;;;;;;;;;14.40;1.00;;;;;;5055670;28;19989;-81
2021/09/25 04:56:25;;;;;;;;;;;14.40;1.00;;;;;;5056142;28;20031;-80
2021/09/25 04:58:50;;;;;;;;;;;14.40;1.00;;;;;;5056727;28;19917;-81
2021/09/25 05:01:16;;;;;;;;;;;14.40;1.00;;;;;;5054813;28;19932;-80
2021/09/25 05:03:41;;;;;;;;;;;14.40;1.00;;;;;;5055382;28;19927;-81
2021/09/25 05:06:07;;;;;;;;;;;14.50;1.00;;;;;;5056470;28;20380;-82
2021/09/25 05:08:33;;;;;;;;;;;14.50;1.00;;;;;;5056846;28;20410;-81
2021/09/25 05:10:58;;;;;;;;;;;14.50;1.00;;;;;;5056116;28;19995;-82
2021/09/25 05:13:24;;;;;;;;;;;14.50;1.00;;;;;;5057534;28;19971;-82
2021/09/25 05:15:50;;;;;;;;;;;14.50;1.00;;;;;;5056497;28;19913;-81
2021/09/25 05:18:15;;;;;;;;;;;14.50;1.00;;;;;;5053639;28;20332;-81
2021/09/25 05:20:40;;;;;;;;;;;14.50;1.00;;;;;;5053986;28;19917;-81
2021/09/25 05:23:06;;;;;;;;;;;14.50;1.00;;;;;;5053967;28;19912;-81
2021/09/25 05:25:31;;;;;;;;;;;14.50;1.00;;;;;;5053996;28;19912;-81
2021/09/25 05:27:57;;;;;;;;;;;14.50;1.00;;;;;;5054801;28;20301;-81
2021/09/25 05:30:22;;;;;;;;;;;14.60;1.00;;;;;;5055823;28;19912;-80
2021/09/25 05:32:48;;;;;;;;;;;14.60;1.00;;;;;;5053812;28;19917;-82
2021/09/25 05:35:13;;;;;;;;;;;14.60;1.00;;;;;;5057223;28;19916;-82
2021/09/25 05:37:39;;;;;;;;;;;14.60;1.00;;;;;;5056070;28;19947;-82
2021/09/25 05:40:05;;;;;;;;;;;14.70;1.00;;;;;;5056418;28;19917;-82
2021/09/25 05:42:30;;;;;;;;;;;14.70;1.00;;;;;;5055848;28;20352;-82
2021/09/25 05:44:56;;;;;;;;;;;14.80;1.00;;;;;;5056592;28;19917;-81
2021/09/25 05:47:22;;;;;;;;;;;14.80;1.00;;;;;;5056606;28;19913;-82
2021/09/25 05:49:48;;;;;;;;;;;14.90;1.00;;;;;;5056331;28;19909;-82
2021/09/25 05:52:14;;;;;;;;;;;14.90;1.00;;;;;;5053295;28;19936;-83
2021/09/25 05:54:40;;;;;;;;;;;14.90;1.00;;;;;;5045505;28;19917;-81
2021/09/25 05:57:06;;;;;;;;;;;15.00;1.00;;;;;;5037707;28;19917;-82
2021/09/25 05:59:32;;;;;;;;;;;15.00;1.00;;;;;;5054882;28;19917;-82
2021/09/25 06:01:57;;;;;;;;;;;15.00;1.00;;;;;;5056215;28;19912;-83
2021/09/25 06:04:23;;;;;;;;;;;15.10;1.00;;;;;;5054384;28;19983;-83
2021/09/25 06:06:49;;;;;;;;;;;15.10;1.00;;;;;;5055484;28;20007;-85
2021/09/25 06:09:14;;;;;;;;;;;15.20;1.00;;;;;;5054649;28;19964;-83
2021/09/25 06:11:40;;;;;;;;;;;15.20;1.00;;;;;;5054989;28;20369;-83
2021/09/25 06:14:05;;;;;;;;;;;15.30;1.00;;;;;;5056536;28;19920;-82
2021/09/25 06:16:31;;;;;;;;;;;15.30;1.00;;;;;;5054769;28;20284;-82
2021/09/25 06:18:56;;;;;;;;;;;15.40;1.00;;;;;;5056018;28;19919;-82
2021/09/25 06:21:22;;;;;;;;;;;15.50;1.00;;;;;;5053760;28;19920;-82
2021/09/25 06:23:47;;;;;;;;;;;15.60;1.00;;;;;;5045743;28;19967;-82
2021/09/25 06:26:13;;;;;;;;;;;15.60;1.00;;;;;;5054024;28;19920;-83
2021/09/25 06:28:39;;;;;;;;;;;15.70;1.00;;;;;;5052815;28;19912;-82
2021/09/25 06:31:04;;;;;;;;;;;15.80;1.00;;;;;;5052877;28;20384;-82
2021/09/25 06:33:30;;;;;;;;;;;15.90;1.00;;;;;;5054790;28;19912;-84
2021/09/25 06:35:55;;;;;;;;;;;16.00;1.00;;;;;;5055554;28;19964;-83
2021/09/25 06:38:21;;;;;;;;;;;16.00;1.00;;;;;;5051013;28;19978;-83
2021/09/25 06:40:47;;;;;;;;;;;16.10;1.00;;;;;;5053319;28;20621;-83
2021/09/25 06:43:12;;;;;;;;;;;16.20;1.00;;;;;;5049454;28;20278;-82
2021/09/25 06:45:39;;;;;;;;;;;16.30;1.00;;;;;;5048157;28;19996;-81
2021/09/25 06:48:05;;;;;;;;;;;16.40;1.00;;;;;;5052640;28;20390;-80
2021/09/25 06:50:30;;;;;;;;;;;16.50;1.00;;;;;;5053072;28;19913;-81
2021/09/25 06:52:56;;;;;;;;;;;16.50;1.00;;;;;;5053891;28;19913;-80
2021/09/25 06:55:21;;;;;;;;;;;16.60;99.90;;;;;;5055475;28;20380;-83
2021/09/25 06:57:47;;;;;;;;;;;16.70;99.90;;;;;;5056538;28;19913;-83
2021/09/25 07:00:12;;;;;;;;;;;16.80;99.90;;;;;;5055009;28;19925;-83
2021/09/25 07:02:38;;;;;;;;;;;16.90;99.90;;;;;;5051973;28;19920;-83
2021/09/25 07:05:04;;;;;;;;;;;17.10;99.90;;;;;;5054843;28;19928;-82
2021/09/25 07:07:30;;;;;;;;;;;17.20;99.90;;;;;;5058526;28;20381;-83
2021/09/25 07:09:55;;;;;;;;;;;17.30;1.00;;;;;;5059491;28;19916;-83
2021/09/25 07:12:21;;;;;;;;;;;17.40;1.00;;;;;;5059680;28;19932;-83
2021/09/25 07:14:46;;;;;;;;;;;17.50;1.00;;;;;;5058729;28;19909;-83
2021/09/25 07:17:11;;;;;;;;;;;17.70;99.90;;;;;;5058561;28;20369;-83
2021/09/25 07:19:37;;;;;;;;;;;17.80;99.90;;;;;;5048313;28;19921;-83
2021/09/25 07:22:02;;;;;;;;;;;17.90;1.00;;;;;;5040008;28;19910;-83
2021/09/25 07:24:28;;;;;;;;;;;18.00;99.90;;;;;;5038693;28;20373;-83
2021/09/25 07:26:53;;;;;;;;;;;18.20;1.00;;;;;;5039221;28;19917;-83
2021/09/25 07:29:19;;;;;;;;;;;18.30;99.90;;;;;;5039343;28;19999;-83
2021/09/25 07:31:46;;;;;;;;;;;18.40;1.00;;;;;;5039669;28;19971;-84
2021/09/25 07:34:11;;;;;;;;;;;18.50;99.90;;;;;;5039991;28;20344;-83
2021/09/25 07:36:37;;;;;;;;;;;18.70;4.10;;;;;;5039181;28;19913;-83
2021/09/25 07:39:03;;;;;;;;;;;19.00;1.00;;;;;;5038272;28;20016;-83
2021/09/25 07:41:28;;;;;;;;;;;19.10;99.90;;;;;;5039099;28;19936;-83
2021/09/25 07:43:54;;;;;;;;;;;19.20;47.20;;;;;;5038430;28;19910;-83
2021/09/25 07:46:19;;;;;;;;;;;19.40;1.00;;;;;;5040024;28;20471;-83
2021/09/25 07:48:45;;;;;;;;;;;19.50;1.00;;;;;;5060786;28;19909;-84
2021/09/25 07:51:10;;;;;;;;;;;19.80;99.90;;;;;;5060744;28;19909;-84
2021/09/25 07:53:36;;;;;;;;;;;20.10;1.00;;;;;;5059797;28;19913;-84
2021/09/25 07:56:01;;;;;;;;;;;20.60;99.90;;;;;;5060701;28;19959;-84
2021/09/25 07:58:27;;;;;;;;;;;21.10;99.90;;;;;;5058537;28;19920;-84
2021/09/25 08:00:52;;;;;;;;;;;21.60;1.00;;;;;;5061736;28;19920;-84
2021/09/25 08:03:18;;;;;;;;;;;22.00;99.90;;;;;;5062679;28;20296;-84
2021/09/25 08:05:44;;;;;;;;;;;22.40;99.90;;;;;;5061514;28;19980;-84
2021/09/25 08:08:09;;;;;;;;;;;22.80;99.90;;;;;;5052856;28;19941;-84
2021/09/25 08:10:35;;;;;;;;;;;23.20;99.90;;;;;;5039441;28;19992;-84
2021/09/25 08:13:00;;;;;;;;;;;23.60;1.00;;;;;;5042971;28;19909;-84
2021/09/25 08:15:26;;;;;;;;;;;24.00;1.00;;;;;;5043161;28;19968;-84
2021/09/25 08:17:51;;;;;;;;;;;24.40;1.00;;;;;;5048200;28;20000;-85
2021/09/25 08:20:17;;;;;;;;;;;24.90;1.00;;;;;;5042112;28;19913;-84
2021/09/25 08:22:43;;;;;;;;;;;25.70;1.00;;;;;;5042228;28;20274;-84
2021/09/25 08:25:09;;;;;;;;;;;26.60;1.00;;;;;;5050278;28;19935;-84
2021/09/25 08:27:35;;;;;;;;;;;27.10;1.00;;;;;;5061855;28;19909;-84
2021/09/25 08:30:01;;;;;;;;;;;27.40;99.90;;;;;;5062869;28;19972;-84
2021/09/25 08:32:26;;;;;;;;;;;27.80;99.90;;;;;;5063322;28;19915;-84
2021/09/25 08:34:52;;;;;;;;;;;28.10;99.90;;;;;;5065290;28;19916;-84
2021/09/25 08:37:17;;;;;;;;;;;28.20;99.90;;;;;;5064379;28;19916;-84
2021/09/25 08:39:43;;;;;;;;;;;28.50;99.90;;;;;;5066181;28;20357;-84
2021/09/25 08:42:11;;;;;;;;;;;28.70;99.90;;;;;;5071086;28;20381;-84
2021/09/25 08:44:36;;;;;;;;;;;28.60;99.90;;;;;;5067853;28;20377;-85
2021/09/25 08:47:02;;;;;;;;;;;28.50;99.90;;;;;;5069018;28;19925;-84
2021/09/25 08:49:27;;;;;;;;;;;28.60;99.90;;;;;;5067616;28;19909;-84
2021/09/25 08:51:53;;;;;;;;;;;28.90;99.90;;;;;;5066195;28;19913;-84
2021/09/25 08:54:18;;;;;;;;;;;29.50;99.90;;;;;;5068155;28;19909;-82
2021/09/25 08:56:44;;;;;;;;;;;30.90;99.90;;;;;;5065757;28;20561;-82
2021/09/25 08:59:09;;;;;;;;;;;32.10;99.90;;;;;;5061631;28;19971;-82
2021/09/25 09:01:35;;;;;;;;;;;34.20;99.90;;;;;;5059229;28;19984;-82
2021/09/25 09:04:02;;;;;;;;;;;36.90;99.90;;;;;;5056254;28;20266;-84
2021/09/25 09:06:29;;;;;;;;;;;38.90;99.90;;;;;;5054880;28;19909;-83
2021/09/25 09:08:56;;;;;;;;;;;39.90;99.90;;;;;;5055173;28;19908;-82
2021/09/25 09:11:23;;;;;;;;;;;40.70;99.90;;;;;;5055992;28;19909;-82
2021/09/25 09:13:53;;;;;;;;;;;41.20;99.90;;;;;;5056140;28;20438;-83
2021/09/25 09:16:18;;;;;;;;;;;41.10;99.90;;;;;;5052120;28;19924;-82
2021/09/25 09:18:45;;;;;;;;;;;40.20;99.90;;;;;;5037545;28;19909;-82
2021/09/25 09:21:13;;;;;;;;;;;39.00;99.90;;;;;;5038483;28;20028;-82
2021/09/25 09:23:44;;;;;;;;;;;37.80;99.90;;;;;;5042348;28;20284;-82
2021/09/25 09:26:12;;;;;;;;;;;36.60;99.90;;;;;;5042993;28;19910;-82
2021/09/25 09:28:39;;;;;;;;;;;36.20;99.90;;;;;;5041420;28;19932;-82
2021/09/25 09:31:05;;;;;;;;;;;36.10;99.90;;;;;;5039978;28;19916;-82
2021/09/25 09:33:30;;;;;;;;;;;36.20;99.90;;;;;;5039956;28;20408;-82
2021/09/25 09:36:22;;;;;;;;;;;36.20;99.90;;;;;;5040643;28;19909;-82
2021/09/25 09:38:53;;;;;;;;;;;36.60;99.90;;;;;;5034430;28;19917;-82
2021/09/25 09:41:21;;;;;;;;;;;37.60;99.90;;;;;;5034918;28;19916;-82
2021/09/25 09:43:47;;;;;;;;;;;37.70;99.90;;;;;;5037896;28;19932;-82
2021/09/25 09:46:13;;;;;;;;;;;37.40;99.90;;;;;;5036192;28;19909;-82
2021/09/25 09:48:38;;;;;;;;;;;37.00;99.90;;;;;;5056912;28;20046;-82
2021/09/25 09:51:04;;;;;;;;;;;36.50;99.90;;;;;;5056461;28;19916;-82
2021/09/25 09:53:40;;;;;;;;;;;36.20;99.90;;;;;;5039337;28;20293;-81
2021/09/25 09:56:15;;;;;;;;;;;35.90;99.90;;;;;;5036559;28;20258;-81
2021/09/25 09:58:40;;;;;;;;;;;36.00;99.90;;;;;;5036528;28;19916;-81
2021/09/25 10:01:07;;;;;;;;;;;36.30;99.90;;;;;;5036111;28;19909;-81
2021/09/25 10:03:33;;;;;;;;;;;36.90;99.90;;;;;;5036728;28;19916;-81
2021/09/25 10:05:59;;;;;;;;;;;37.40;99.90;;;;;;5037232;28;19956;-81
2021/09/25 10:08:25;;;;;;;;;;;37.70;99.90;;;;;;5036177;28;19909;-80
2021/09/25 10:10:50;;;;;;;;;;;37.60;99.90;;;;;;5036026;28;19963;-81
2021/09/25 10:13:17;;;;;;;;;;;37.60;99.90;;;;;;5036764;28;19956;-80
2021/09/25 10:15:43;;;;;;;;;;;37.50;99.90;;;;;;5037088;28;19909;-80
2021/09/25 10:18:08;;;;;;;;;;;37.30;99.90;;;;;;5042455;28;20443;-81
2021/09/25 10:20:34;;;;;;;;;;;36.80;99.90;;;;;;5041564;28;20403;-81
2021/09/25 10:23:00;;;;;;;;;;;36.20;99.90;;;;;;5041700;28;19920;-80
2021/09/25 10:25:25;;;;;;;;;;;35.60;99.90;;;;;;5041125;28;19909;-80
2021/09/25 10:27:51;;;;;;;;;;;35.20;99.90;;;;;;5041801;28;19915;-80
2021/09/25 10:30:32;;;;;;;;;;;34.80;99.90;;;;;;5040993;28;19909;-80
2021/09/25 10:32:58;;;;;;;;;;;34.60;99.90;;;;;;5039415;28;19972;-80
2021/09/25 10:35:28;;;;;;;;;;;34.20;99.90;;;;;;5039484;28;19949;-80
2021/09/25 10:37:55;;;;;;;;;;;33.80;99.90;;;;;;5041398;28;19913;-80
2021/09/25 10:40:23;;;;;;;;;;;33.40;99.90;;;;;;5041041;28;19913;-80
2021/09/25 10:42:48;;;;;;;;;;;33.30;99.90;;;;;;5042052;28;19920;-80
2021/09/25 10:45:32;;;;;;;;;;;35.90;99.90;;;;;;5041354;28;19910;-81
2021/09/25 10:48:17;;;;;;;;;;;38.30;99.90;;;;;;5055349;28;20009;-81
2021/09/25 10:50:51;;;;;;;;;;;40.10;99.90;;;;;;5061146;28;19971;-82
2021/09/25 10:53:18;;;;;;;;;;;41.20;99.90;;;;;;5061005;28;19968;-81
2021/09/25 10:55:45;;;;;;;;;;;42.00;99.90;;;;;;5060640;28;19913;-81
2021/09/25 10:58:11;;;;;;;;;;;42.50;99.90;;;;;;5062407;28;19913;-81
2021/09/25 11:00:45;;;;;;;;;;;42.90;99.90;;;;;;5060645;28;19917;-81
2021/09/25 11:03:11;;;;;;;;;;;43.10;99.90;;;;;;5058370;28;19912;-81
2021/09/25 11:06:12;;;;;;;;;;;42.60;99.90;;;;;;5055770;28;19923;-81
2021/09/25 11:08:38;;;;;;;;;;;41.80;99.90;;;;;;4974249;28;19918;-81
2021/09/25 11:11:04;;;;;;;;;;;41.40;99.90;;;;;;5039285;28;19920;-81
2021/09/25 11:13:48;;;;;;;;;;;41.10;99.90;;;;;;5057069;28;19908;-82
2021/09/25 11:16:14;;;;;;;;;;;40.90;99.90;;;;;;5056421;28;19935;-81
2021/09/25 11:18:49;;;;;;;;;;;41.10;99.90;;;;;;5056813;28;20432;-81
2021/09/25 11:21:15;;;;;;;;;;;41.50;99.90;;;;;;5055677;28;20003;-82
2021/09/25 11:23:45;;;;;;;;;;;41.30;99.90;;;;;;5057076;28;20293;-81
2021/09/25 11:26:13;;;;;;;;;;;41.20;99.90;;;;;;5056799;28;19917;-81
2021/09/25 11:28:43;;;;;;;;;;;41.30;99.90;;;;;;5058028;28;20361;-81
2021/09/25 11:31:10;;;;;;;;;;;41.60;99.90;;;;;;5057192;28;19944;-80
2021/09/25 11:33:36;;;;;;;;;;;41.80;99.90;;;;;;5056941;28;19916;-81
2021/09/25 11:36:05;;;;;;;;;;;42.10;99.90;;;;;;5057140;28;19909;-81
2021/09/25 11:38:31;;;;;;;;;;;42.30;99.90;;;;;;5057017;28;20014;-81
2021/09/25 11:40:58;;;;;;;;;;;42.00;99.90;;;;;;5057219;28;19974;-81
2021/09/25 11:43:23;;;;;;;;;;;41.30;99.90;;;;;;5057835;28;20535;-81
2021/09/25 11:45:50;;;;;;;;;;;40.90;99.90;;;;;;5058847;28;19955;-81
2021/09/25 11:48:20;;;;;;;;;;;40.50;99.90;;;;;;5058738;28;19909;-81
2021/09/25 11:50:47;;;;;;;;;;;40.30;99.90;;;;;;5059294;28;20004;-81
2021/09/25 11:53:14;;;;;;;;;;;40.00;99.90;;;;;;5061934;28;19916;-81
2021/09/25 11:55:40;;;;;;;;;;;40.00;99.90;;;;;;5060286;28;20004;-81
2021/09/25 11:58:10;;;;;;;;;;;40.10;99.90;;;;;;5061003;28;19909;-83
2021/09/25 12:00:38;;;;;;;;;;;39.90;99.90;;;;;;5059834;28;20003;-82
2021/09/25 12:03:04;;;;;;;;;;;39.50;99.90;;;;;;5060186;28;19915;-81
2021/09/25 12:05:43;;;;;;;;;;;39.50;99.90;;;;;;5058944;28;19935;-81
2021/09/25 12:08:13;;;;;;;;;;;39.50;99.90;;;;;;5060247;28;19916;-81
2021/09/25 12:10:42;;;;;;;;;;;39.20;99.90;;;;;;5060508;28;19920;-81
2021/09/25 12:13:08;;;;;;;;;;;39.40;99.90;;;;;;5058296;28;19913;-81
2021/09/25 12:15:35;;;;;;;;;;;39.80;99.90;;;;;;5060378;28;19916;-81
2021/09/25 12:18:21;;;;;;;;;;;39.80;99.90;;;;;;5060271;28;19915;-81
2021/09/25 12:20:48;;;;;;;;;;;39.50;99.90;;;;;;5059179;28;19995;-81
2021/09/25 12:23:32;;;;;;;;;;;39.30;99.90;;;;;;5060227;28;19980;-81
2021/09/25 12:25:58;;;;;;;;;;;39.00;99.90;;;;;;5059144;28;19913;-81
2021/09/25 12:28:24;;;;;;;;;;;38.80;99.90;;;;;;5060901;28;20008;-81
2021/09/25 12:30:51;;;;;;;;;;;38.30;99.90;;;;;;5060705;28;19919;-81
2021/09/25 12:33:17;;;;;;;;;;;38.40;99.90;;;;;;5058758;28;19959;-80
2021/09/25 12:35:52;;;;;;;;;;;38.50;99.90;;;;;;5059931;28;19913;-81
2021/09/25 12:38:19;;;;;;;;;;;38.70;99.90;;;;;;5058234;28;19909;-80
2021/09/25 12:40:44;;;;;;;;;;;38.80;99.90;;;;;;5057604;28;20344;-81
2021/09/25 12:43:10;;;;;;;;;;;38.90;99.90;;;;;;5059601;28;19916;-80
2021/09/25 12:45:35;;;;;;;;;;;38.80;99.90;;;;;;5059736;28;19916;-80
2021/09/25 12:48:16;;;;;;;;;;;38.70;99.90;;;;;;5057956;28;19917;-80
2021/09/25 12:50:48;;;;;;;;;;;38.40;99.90;;;;;;5058294;28;19912;-80
2021/09/25 12:53:16;;;;;;;;;;;37.80;99.90;;;;;;5059087;28;19913;-80
2021/09/25 12:55:42;;;;;;;;;;;36.80;99.90;;;;;;5057787;28;19912;-80
2021/09/25 12:58:07;;;;;;;;;;;36.60;99.90;;;;;;5062849;28;19915;-81
2021/09/25 13:00:33;;;;;;;;;;;36.80;99.90;;;;;;5063257;28;19913;-80
2021/09/25 13:02:59;;;;;;;;;;;37.20;99.90;;;;;;5064043;28;19909;-81
2021/09/25 13:05:25;;;;;;;;;;;37.40;99.90;;;;;;5053984;28;20344;-80
2021/09/25 13:07:51;;;;;;;;;;;37.00;99.90;;;;;;5043158;28;19910;-80
2021/09/25 13:10:21;;;;;;;;;;;36.40;99.90;;;;;;5042610;28;19975;-80
2021/09/25 13:12:51;;;;;;;;;;;36.00;99.90;;;;;;5043854;28;19949;-80
2021/09/25 13:15:19;;;;;;;;;;;35.40;99.90;;;;;;5044183;28;20373;-80
2021/09/25 13:17:48;;;;;;;;;;;35.20;99.90;;;;;;5043058;28;19939;-81
2021/09/25 13:20:19;;;;;;;;;;;35.40;99.90;;;;;;5043224;28;19940;-80
2021/09/25 13:22:46;;;;;;;;;;;35.30;99.90;;;;;;5049842;28;19936;-81
2021/09/25 13:25:13;;;;;;;;;;;35.30;99.90;;;;;;5047199;28;19909;-81
2021/09/25 13:27:38;;;;;;;;;;;35.50;99.90;;;;;;5041508;28;19916;-81
2021/09/25 13:30:04;;;;;;;;;;;35.80;99.90;;;;;;5041788;28;20007;-81
2021/09/25 13:32:30;;;;;;;;;;;35.90;99.90;;;;;;5043640;28;19964;-81
2021/09/25 13:34:55;;;;;;;;;;;35.90;99.90;;;;;;5042893;28;19909;-81
2021/09/25 13:37:21;;;;;;;;;;;35.50;99.90;;;;;;5041778;28;20011;-81
2021/09/25 13:39:47;;;;;;;;;;;35.40;99.90;;;;;;5059742;28;19963;-81
2021/09/25 13:42:12;;;;;;;;;;;35.40;99.90;;;;;;5062257;28;19913;-81
2021/09/25 13:44:38;;;;;;;;;;;35.40;99.90;;;;;;5060519;28;20344;-81
2021/09/25 13:47:04;;;;;;;;;;;34.90;99.90;;;;;;5062091;28;19913;-81
2021/09/25 13:49:30;;;;;;;;;;;34.60;99.90;;;;;;5061993;28;19975;-80
2021/09/25 13:51:56;;;;;;;;;;;34.10;99.90;;;;;;5062398;28;19947;-80
2021/09/25 13:54:22;;;;;;;;;;;33.40;99.90;;;;;;5062852;28;20004;-81
2021/09/25 13:56:47;;;;;;;;;;;32.90;99.90;;;;;;5060893;28;19952;-80
2021/09/25 13:59:13;;;;;;;;;;;32.70;99.90;;;;;;5061788;28;19948;-80
2021/09/25 14:01:39;;;;;;;;;;;32.90;99.90;;;;;;5062810;28;19943;-80
2021/09/25 14:04:04;;;;;;;;;;;33.00;99.90;;;;;;5062684;28;19917;-80
2021/09/25 14:06:30;;;;;;;;;;;32.90;99.90;;;;;;5062158;28;19948;-80
2021/09/25 14:08:55;;;;;;;;;;;32.70;99.90;;;;;;5061329;28;19944;-80
2021/09/25 14:11:20;;;;;;;;;;;32.40;99.90;;;;;;5062626;28;19916;-81
2021/09/25 14:13:46;;;;;;;;;;;32.10;99.90;;;;;;5059832;28;19913;-81
2021/09/25 14:16:12;;;;;;;;;;;31.90;99.90;;;;;;5061891;28;19916;-81
2021/09/25 14:18:38;;;;;;;;;;;31.80;99.90;;;;;;5057285;28;19908;-81
2021/09/25 14:21:08;;;;;;;;;;;31.50;99.90;;;;;;5056455;28;20372;-81